sensor_id;sensor_type;location;lat;lon;timestamp;P1;durP1;ratioP1;P2;durP2;ratioP2
45618;SDS011;31343;47.520;19.144;2023-07-22T00:01:14;2.60;;;1.77;;
45618;SDS011;31343;47.520;19.144;2023-07-22T00:03:41;1.98;;;1.30;;
45618;SDS011;31343;47.520;19.144;2023-07-22T00:06:08;2.60;;;1.55;;
45618;SDS011;31343;47.520;19.144;2023-07-22T00:08:35;2.10;;;1.65;;
45618;SDS011;31343;47.520;19.144;2023-07-22T00:11:02;3.00;;;1.45;;
45618;SDS011;31343;47.520;19.144;2023-07-22T00:13:28;1.63;;;1.25;;
45618;SDS011;31343;47.520;19.144;2023-07-22T00:15:54;2.35;;;1.60;;
45618;SDS011;31343;47.520;19.144;2023-07-22T00:18:22;3.28;;;2.20;;
45618;SDS011;31343;47.520;19.144;2023-07-22T00:20:50;2.40;;;1.50;;
45618;SDS011;31343;47.520;19.144;2023-07-22T00:23:16;2.17;;;1.33;;
45618;SDS011;31343;47.520;19.144;2023-07-22T00:25:42;2.47;;;1.38;;
45618;SDS011;31343;47.520;19.144;2023-07-22T00:28:08;2.22;;;1.90;;
45618;SDS011;31343;47.520;19.144;2023-07-22T00:30:35;2.10;;;1.73;;
45618;SDS011;31343;47.520;19.144;2023-07-22T00:33:00;2.17;;;1.80;;
45618;SDS011;31343;47.520;19.144;2023-07-22T00:35:26;2.50;;;1.55;;
45618;SDS011;31343;47.520;19.144;2023-07-22T00:37:52;3.13;;;1.50;;
45618;SDS011;31343;47.520;19.144;2023-07-22T00:40:18;3.17;;;2.05;;
45618;SDS011;31343;47.520;19.144;2023-07-22T00:42:44;3.15;;;1.60;;
45618;SDS011;31343;47.520;19.144;2023-07-22T00:45:10;3.05;;;1.73;;
45618;SDS011;31343;47.520;19.144;2023-07-22T00:47:36;1.80;;;1.55;;
45618;SDS011;31343;47.520;19.144;2023-07-22T00:50:02;3.17;;;1.60;;
45618;SDS011;31343;47.520;19.144;2023-07-22T00:52:30;2.13;;;1.77;;
45618;SDS011;31343;47.520;19.144;2023-07-22T00:54:56;2.10;;;1.15;;
45618;SDS011;31343;47.520;19.144;2023-07-22T00:57:21;3.05;;;1.80;;
45618;SDS011;31343;47.520;19.144;2023-07-22T00:59:48;2.60;;;2.00;;
45618;SDS011;31343;47.520;19.144;2023-07-22T01:02:14;2.70;;;1.50;;
45618;SDS011;31343;47.520;19.144;2023-07-22T01:04:40;1.80;;;1.33;;
45618;SDS011;31343;47.520;19.144;2023-07-22T01:07:06;2.10;;;1.50;;
45618;SDS011;31343;47.520;19.144;2023-07-22T01:09:37;2.75;;;1.63;;
45618;SDS011;31343;47.520;19.144;2023-07-22T01:12:03;2.60;;;1.77;;
45618;SDS011;31343;47.520;19.144;2023-07-22T01:14:33;2.80;;;1.83;;
45618;SDS011;31343;47.520;19.144;2023-07-22T01:17:00;2.53;;;1.67;;
45618;SDS011;31343;47.520;19.144;2023-07-22T01:19:30;2.20;;;1.58;;
45618;SDS011;31343;47.520;19.144;2023-07-22T01:22:03;2.85;;;1.60;;
45618;SDS011;31343;47.520;19.144;2023-07-22T01:24:32;2.10;;;1.45;;
45618;SDS011;31343;47.520;19.144;2023-07-22T01:26:59;2.22;;;1.58;;
45618;SDS011;31343;47.520;19.144;2023-07-22T01:29:25;3.22;;;1.98;;
45618;SDS011;31343;47.520;19.144;2023-07-22T01:31:52;2.30;;;1.73;;
45618;SDS011;31343;47.520;19.144;2023-07-22T01:34:19;2.40;;;1.70;;
45618;SDS011;31343;47.520;19.144;2023-07-22T01:36:45;4.70;;;2.17;;
45618;SDS011;31343;47.520;19.144;2023-07-22T01:39:13;2.00;;;1.42;;
45618;SDS011;31343;47.520;19.144;2023-07-22T01:41:40;2.15;;;1.40;;
45618;SDS011;31343;47.520;19.144;2023-07-22T01:44:06;1.85;;;1.65;;
45618;SDS011;31343;47.520;19.144;2023-07-22T01:46:34;4.50;;;2.65;;
45618;SDS011;31343;47.520;19.144;2023-07-22T01:49:07;2.60;;;1.63;;
45618;SDS011;31343;47.520;19.144;2023-07-22T01:51:38;2.67;;;1.90;;
45618;SDS011;31343;47.520;19.144;2023-07-22T01:54:05;2.28;;;1.55;;
45618;SDS011;31343;47.520;19.144;2023-07-22T01:56:33;3.33;;;1.75;;
45618;SDS011;31343;47.520;19.144;2023-07-22T01:59:00;2.55;;;1.92;;
45618;SDS011;31343;47.520;19.144;2023-07-22T02:01:26;4.32;;;1.95;;
45618;SDS011;31343;47.520;19.144;2023-07-22T02:03:54;1.88;;;1.58;;
45618;SDS011;31343;47.520;19.144;2023-07-22T02:06:20;3.15;;;2.00;;
45618;SDS011;31343;47.520;19.144;2023-07-22T02:08:46;2.47;;;1.90;;
45618;SDS011;31343;47.520;19.144;2023-07-22T02:11:12;1.95;;;1.30;;
45618;SDS011;31343;47.520;19.144;2023-07-22T02:13:47;2.83;;;1.95;;
45618;SDS011;31343;47.520;19.144;2023-07-22T02:16:20;2.03;;;1.35;;
45618;SDS011;31343;47.520;19.144;2023-07-22T02:18:51;2.30;;;1.60;;
45618;SDS011;31343;47.520;19.144;2023-07-22T02:21:18;3.40;;;1.83;;
45618;SDS011;31343;47.520;19.144;2023-07-22T02:23:45;3.08;;;2.03;;
45618;SDS011;31343;47.520;19.144;2023-07-22T02:26:10;2.90;;;1.88;;
45618;SDS011;31343;47.520;19.144;2023-07-22T02:28:39;2.58;;;1.73;;
45618;SDS011;31343;47.520;19.144;2023-07-22T02:31:05;1.58;;;1.40;;
45618;SDS011;31343;47.520;19.144;2023-07-22T02:33:33;3.85;;;2.38;;
45618;SDS011;31343;47.520;19.144;2023-07-22T02:35:59;3.08;;;2.10;;
45618;SDS011;31343;47.520;19.144;2023-07-22T02:38:31;2.28;;;1.58;;
45618;SDS011;31343;47.520;19.144;2023-07-22T02:41:05;3.15;;;1.52;;
45618;SDS011;31343;47.520;19.144;2023-07-22T02:43:34;2.13;;;1.40;;
45618;SDS011;31343;47.520;19.144;2023-07-22T02:46:05;3.00;;;1.65;;
45618;SDS011;31343;47.520;19.144;2023-07-22T02:48:33;3.42;;;1.92;;
45618;SDS011;31343;47.520;19.144;2023-07-22T02:51:05;2.85;;;1.58;;
45618;SDS011;31343;47.520;19.144;2023-07-22T02:53:32;1.95;;;1.33;;
45618;SDS011;31343;47.520;19.144;2023-07-22T02:55:59;3.22;;;1.65;;
45618;SDS011;31343;47.520;19.144;2023-07-22T02:58:25;4.32;;;1.95;;
45618;SDS011;31343;47.520;19.144;2023-07-22T03:00:52;3.20;;;1.73;;
45618;SDS011;31343;47.520;19.144;2023-07-22T03:03:18;1.90;;;1.55;;
45618;SDS011;31343;47.520;19.144;2023-07-22T03:05:44;3.17;;;1.90;;
45618;SDS011;31343;47.520;19.144;2023-07-22T03:08:12;2.33;;;1.70;;
45618;SDS011;31343;47.520;19.144;2023-07-22T03:10:42;2.33;;;1.85;;
45618;SDS011;31343;47.520;19.144;2023-07-22T03:13:14;1.95;;;1.23;;
45618;SDS011;31343;47.520;19.144;2023-07-22T03:15:46;2.30;;;1.60;;
45618;SDS011;31343;47.520;19.144;2023-07-22T03:18:12;3.38;;;1.77;;
45618;SDS011;31343;47.520;19.144;2023-07-22T03:20:39;1.98;;;1.35;;
45618;SDS011;31343;47.520;19.144;2023-07-22T03:23:07;3.88;;;2.38;;
45618;SDS011;31343;47.520;19.144;2023-07-22T03:25:34;2.67;;;1.48;;
45618;SDS011;31343;47.520;19.144;2023-07-22T03:28:04;2.22;;;1.58;;
45618;SDS011;31343;47.520;19.144;2023-07-22T03:30:30;2.28;;;1.60;;
45618;SDS011;31343;47.520;19.144;2023-07-22T03:32:58;2.03;;;1.30;;
45618;SDS011;31343;47.520;19.144;2023-07-22T03:35:24;3.88;;;2.20;;
45618;SDS011;31343;47.520;19.144;2023-07-22T03:37:49;3.03;;;1.85;;
45618;SDS011;31343;47.520;19.144;2023-07-22T03:40:15;2.70;;;2.15;;
45618;SDS011;31343;47.520;19.144;2023-07-22T03:43:02;2.00;;;1.50;;
45618;SDS011;31343;47.520;19.144;2023-07-22T03:45:28;2.97;;;2.03;;
45618;SDS011;31343;47.520;19.144;2023-07-22T03:47:56;3.28;;;2.40;;
45618;SDS011;31343;47.520;19.144;2023-07-22T03:50:26;2.63;;;1.80;;
45618;SDS011;31343;47.520;19.144;2023-07-22T03:52:54;2.28;;;1.92;;
45618;SDS011;31343;47.520;19.144;2023-07-22T03:55:20;4.00;;;2.47;;
45618;SDS011;31343;47.520;19.144;2023-07-22T03:57:45;2.85;;;2.38;;
45618;SDS011;31343;47.520;19.144;2023-07-22T04:00:11;4.82;;;1.98;;
45618;SDS011;31343;47.520;19.144;2023-07-22T04:02:39;3.60;;;2.30;;
45618;SDS011;31343;47.520;19.144;2023-07-22T04:05:07;3.15;;;2.33;;
45618;SDS011;31343;47.520;19.144;2023-07-22T04:07:34;5.68;;;2.40;;
45618;SDS011;31343;47.520;19.144;2023-07-22T04:10:01;3.00;;;2.00;;
45618;SDS011;31343;47.520;19.144;2023-07-22T04:12:27;3.53;;;2.45;;
45618;SDS011;31343;47.520;19.144;2023-07-22T04:15:01;4.05;;;2.95;;
45618;SDS011;31343;47.520;19.144;2023-07-22T04:17:28;4.40;;;2.50;;
45618;SDS011;31343;47.520;19.144;2023-07-22T04:19:55;4.07;;;2.92;;
45618;SDS011;31343;47.520;19.144;2023-07-22T04:22:21;4.57;;;2.58;;
45618;SDS011;31343;47.520;19.144;2023-07-22T04:24:46;3.45;;;2.28;;
45618;SDS011;31343;47.520;19.144;2023-07-22T04:27:15;3.83;;;2.58;;
45618;SDS011;31343;47.520;19.144;2023-07-22T04:29:41;3.05;;;2.30;;
45618;SDS011;31343;47.520;19.144;2023-07-22T04:32:07;5.07;;;2.58;;
45618;SDS011;31343;47.520;19.144;2023-07-22T04:34:35;6.15;;;2.63;;
45618;SDS011;31343;47.520;19.144;2023-07-22T04:37:02;3.20;;;2.03;;
45618;SDS011;31343;47.520;19.144;2023-07-22T04:39:28;3.03;;;2.22;;
45618;SDS011;31343;47.520;19.144;2023-07-22T04:41:54;3.75;;;2.03;;
45618;SDS011;31343;47.520;19.144;2023-07-22T04:44:20;3.92;;;2.45;;
45618;SDS011;31343;47.520;19.144;2023-07-22T04:46:47;3.03;;;2.00;;
45618;SDS011;31343;47.520;19.144;2023-07-22T04:49:12;2.67;;;1.90;;
45618;SDS011;31343;47.520;19.144;2023-07-22T04:51:47;3.45;;;2.05;;
45618;SDS011;31343;47.520;19.144;2023-07-22T04:54:14;2.42;;;2.20;;
45618;SDS011;31343;47.520;19.144;2023-07-22T04:56:41;3.65;;;2.58;;
45618;SDS011;31343;47.520;19.144;2023-07-22T04:59:10;2.88;;;1.73;;
45618;SDS011;31343;47.520;19.144;2023-07-22T05:01:37;2.20;;;1.50;;
45618;SDS011;31343;47.520;19.144;2023-07-22T05:04:04;3.45;;;2.10;;
45618;SDS011;31343;47.520;19.144;2023-07-22T05:06:33;2.33;;;1.55;;
45618;SDS011;31343;47.520;19.144;2023-07-22T05:08:59;1.90;;;1.42;;
45618;SDS011;31343;47.520;19.144;2023-07-22T05:11:27;3.20;;;1.65;;
45618;SDS011;31343;47.520;19.144;2023-07-22T05:13:58;2.92;;;1.77;;
45618;SDS011;31343;47.520;19.144;2023-07-22T05:16:27;2.00;;;1.42;;
45618;SDS011;31343;47.520;19.144;2023-07-22T05:18:53;2.55;;;1.40;;
45618;SDS011;31343;47.520;19.144;2023-07-22T05:21:20;2.75;;;1.75;;
45618;SDS011;31343;47.520;19.144;2023-07-22T05:23:46;2.65;;;1.90;;
45618;SDS011;31343;47.520;19.144;2023-07-22T05:26:12;2.50;;;1.70;;
45618;SDS011;31343;47.520;19.144;2023-07-22T05:28:38;2.50;;;1.70;;
45618;SDS011;31343;47.520;19.144;2023-07-22T05:31:04;3.55;;;1.70;;
45618;SDS011;31343;47.520;19.144;2023-07-22T05:33:30;2.88;;;1.42;;
45618;SDS011;31343;47.520;19.144;2023-07-22T05:35:56;2.22;;;1.67;;
45618;SDS011;31343;47.520;19.144;2023-07-22T05:38:22;2.00;;;1.42;;
45618;SDS011;31343;47.520;19.144;2023-07-22T05:40:51;1.48;;;1.15;;
45618;SDS011;31343;47.520;19.144;2023-07-22T05:43:18;3.75;;;1.80;;
45618;SDS011;31343;47.520;19.144;2023-07-22T05:45:43;1.95;;;1.38;;
45618;SDS011;31343;47.520;19.144;2023-07-22T05:48:09;2.50;;;1.40;;
45618;SDS011;31343;47.520;19.144;2023-07-22T05:50:36;2.13;;;1.30;;
45618;SDS011;31343;47.520;19.144;2023-07-22T05:53:03;1.48;;;1.05;;
45618;SDS011;31343;47.520;19.144;2023-07-22T05:55:28;2.38;;;1.70;;
45618;SDS011;31343;47.520;19.144;2023-07-22T05:57:54;1.85;;;1.10;;
45618;SDS011;31343;47.520;19.144;2023-07-22T06:00:20;4.35;;;1.63;;
45618;SDS011;31343;47.520;19.144;2023-07-22T06:02:46;1.80;;;1.13;;
45618;SDS011;31343;47.520;19.144;2023-07-22T06:05:11;2.40;;;1.33;;
45618;SDS011;31343;47.520;19.144;2023-07-22T06:07:37;2.03;;;1.30;;
45618;SDS011;31343;47.520;19.144;2023-07-22T06:10:03;2.38;;;1.50;;
45618;SDS011;31343;47.520;19.144;2023-07-22T06:12:30;2.33;;;1.65;;
45618;SDS011;31343;47.520;19.144;2023-07-22T06:14:56;2.38;;;1.65;;
45618;SDS011;31343;47.520;19.144;2023-07-22T06:17:22;2.53;;;2.15;;
45618;SDS011;31343;47.520;19.144;2023-07-22T06:19:49;2.03;;;1.38;;
45618;SDS011;31343;47.520;19.144;2023-07-22T06:22:15;1.55;;;1.02;;
45618;SDS011;31343;47.520;19.144;2023-07-22T06:24:40;1.90;;;1.10;;
45618;SDS011;31343;47.520;19.144;2023-07-22T06:27:06;2.60;;;1.48;;
45618;SDS011;31343;47.520;19.144;2023-07-22T06:29:32;1.73;;;1.27;;
45618;SDS011;31343;47.520;19.144;2023-07-22T06:31:59;1.75;;;1.30;;
45618;SDS011;31343;47.520;19.144;2023-07-22T06:34:24;1.73;;;1.25;;
45618;SDS011;31343;47.520;19.144;2023-07-22T06:36:50;1.80;;;1.02;;
45618;SDS011;31343;47.520;19.144;2023-07-22T06:39:16;6.18;;;1.20;;
45618;SDS011;31343;47.520;19.144;2023-07-22T06:41:41;1.30;;;1.13;;
45618;SDS011;31343;47.520;19.144;2023-07-22T06:44:07;1.33;;;0.90;;
45618;SDS011;31343;47.520;19.144;2023-07-22T06:46:33;1.85;;;1.10;;
45618;SDS011;31343;47.520;19.144;2023-07-22T06:48:59;1.83;;;1.02;;
45618;SDS011;31343;47.520;19.144;2023-07-22T06:51:24;1.65;;;1.10;;
45618;SDS011;31343;47.520;19.144;2023-07-22T06:53:51;1.67;;;0.90;;
45618;SDS011;31343;47.520;19.144;2023-07-22T06:56:17;1.95;;;1.10;;
45618;SDS011;31343;47.520;19.144;2023-07-22T06:58:43;2.13;;;1.48;;
45618;SDS011;31343;47.520;19.144;2023-07-22T07:01:11;2.60;;;1.30;;
45618;SDS011;31343;47.520;19.144;2023-07-22T07:03:37;0.93;;;0.70;;
45618;SDS011;31343;47.520;19.144;2023-07-22T07:06:03;1.42;;;0.93;;
45618;SDS011;31343;47.520;19.144;2023-07-22T07:08:30;1.70;;;1.13;;
45618;SDS011;31343;47.520;19.144;2023-07-22T07:10:56;1.58;;;1.10;;
45618;SDS011;31343;47.520;19.144;2023-07-22T07:13:28;1.83;;;1.23;;
45618;SDS011;31343;47.520;19.144;2023-07-22T07:15:54;1.83;;;1.00;;
45618;SDS011;31343;47.520;19.144;2023-07-22T07:18:20;2.13;;;1.15;;
45618;SDS011;31343;47.520;19.144;2023-07-22T07:20:45;1.27;;;1.05;;
45618;SDS011;31343;47.520;19.144;2023-07-22T07:23:12;2.22;;;1.35;;
45618;SDS011;31343;47.520;19.144;2023-07-22T07:25:39;1.80;;;1.25;;
45618;SDS011;31343;47.520;19.144;2023-07-22T07:28:05;2.15;;;1.00;;
45618;SDS011;31343;47.520;19.144;2023-07-22T07:30:31;2.92;;;1.50;;
45618;SDS011;31343;47.520;19.144;2023-07-22T07:32:57;1.58;;;1.30;;
45618;SDS011;31343;47.520;19.144;2023-07-22T07:35:23;2.03;;;1.42;;
45618;SDS011;31343;47.520;19.144;2023-07-22T07:37:50;2.67;;;2.08;;
45618;SDS011;31343;47.520;19.144;2023-07-22T07:40:16;2.00;;;1.30;;
45618;SDS011;31343;47.520;19.144;2023-07-22T07:42:41;2.20;;;1.38;;
45618;SDS011;31343;47.520;19.144;2023-07-22T07:45:07;2.40;;;1.60;;
45618;SDS011;31343;47.520;19.144;2023-07-22T07:47:33;2.03;;;1.27;;
45618;SDS011;31343;47.520;19.144;2023-07-22T07:50:01;1.10;;;0.90;;
45618;SDS011;31343;47.520;19.144;2023-07-22T07:52:28;2.40;;;1.17;;
45618;SDS011;31343;47.520;19.144;2023-07-22T07:54:53;2.50;;;1.90;;
45618;SDS011;31343;47.520;19.144;2023-07-22T07:57:20;1.92;;;1.13;;
45618;SDS011;31343;47.520;19.144;2023-07-22T07:59:47;3.00;;;1.27;;
45618;SDS011;31343;47.520;19.144;2023-07-22T08:02:12;1.75;;;0.95;;
45618;SDS011;31343;47.520;19.144;2023-07-22T08:04:38;2.70;;;1.42;;
45618;SDS011;31343;47.520;19.144;2023-07-22T08:07:05;1.92;;;1.48;;
45618;SDS011;31343;47.520;19.144;2023-07-22T08:09:31;2.13;;;1.60;;
45618;SDS011;31343;47.520;19.144;2023-07-22T08:11:57;1.88;;;1.15;;
45618;SDS011;31343;47.520;19.144;2023-07-22T08:14:23;1.70;;;1.17;;
45618;SDS011;31343;47.520;19.144;2023-07-22T08:16:48;1.60;;;1.27;;
45618;SDS011;31343;47.520;19.144;2023-07-22T08:19:14;1.95;;;1.40;;
45618;SDS011;31343;47.520;19.144;2023-07-22T08:21:40;1.45;;;0.80;;
45618;SDS011;31343;47.520;19.144;2023-07-22T08:24:05;2.03;;;1.50;;
45618;SDS011;31343;47.520;19.144;2023-07-22T08:26:32;1.60;;;1.15;;
45618;SDS011;31343;47.520;19.144;2023-07-22T08:28:58;1.75;;;1.30;;
45618;SDS011;31343;47.520;19.144;2023-07-22T08:31:24;2.85;;;1.40;;
45618;SDS011;31343;47.520;19.144;2023-07-22T08:33:49;1.77;;;1.17;;
45618;SDS011;31343;47.520;19.144;2023-07-22T08:36:15;1.67;;;0.95;;
45618;SDS011;31343;47.520;19.144;2023-07-22T08:38:42;1.92;;;1.33;;
45618;SDS011;31343;47.520;19.144;2023-07-22T08:41:08;2.72;;;2.00;;
45618;SDS011;31343;47.520;19.144;2023-07-22T08:43:39;1.65;;;1.02;;
45618;SDS011;31343;47.520;19.144;2023-07-22T08:46:06;1.35;;;0.80;;
45618;SDS011;31343;47.520;19.144;2023-07-22T08:48:32;1.55;;;1.10;;
45618;SDS011;31343;47.520;19.144;2023-07-22T08:51:10;2.75;;;1.48;;
45618;SDS011;31343;47.520;19.144;2023-07-22T08:53:41;1.60;;;1.00;;
45618;SDS011;31343;47.520;19.144;2023-07-22T08:56:09;2.17;;;1.30;;
45618;SDS011;31343;47.520;19.144;2023-07-22T08:58:35;1.65;;;1.13;;
45618;SDS011;31343;47.520;19.144;2023-07-22T09:01:01;1.95;;;1.38;;
45618;SDS011;31343;47.520;19.144;2023-07-22T09:03:28;1.30;;;0.90;;
45618;SDS011;31343;47.520;19.144;2023-07-22T09:05:54;1.65;;;1.23;;
45618;SDS011;31343;47.520;19.144;2023-07-22T09:08:20;1.15;;;0.93;;
45618;SDS011;31343;47.520;19.144;2023-07-22T09:10:46;1.80;;;1.10;;
45618;SDS011;31343;47.520;19.144;2023-07-22T09:13:13;1.40;;;1.20;;
45618;SDS011;31343;47.520;19.144;2023-07-22T09:15:42;1.75;;;1.20;;
45618;SDS011;31343;47.520;19.144;2023-07-22T09:18:08;2.33;;;1.23;;
45618;SDS011;31343;47.520;19.144;2023-07-22T09:20:34;2.00;;;1.33;;
45618;SDS011;31343;47.520;19.144;2023-07-22T09:22:59;1.60;;;1.00;;
45618;SDS011;31343;47.520;19.144;2023-07-22T09:25:26;2.22;;;1.30;;
45618;SDS011;31343;47.520;19.144;2023-07-22T09:27:54;1.00;;;0.85;;
45618;SDS011;31343;47.520;19.144;2023-07-22T09:30:35;1.48;;;0.95;;
45618;SDS011;31343;47.520;19.144;2023-07-22T09:33:03;1.95;;;1.38;;
45618;SDS011;31343;47.520;19.144;2023-07-22T09:38:07;1.45;;;1.13;;
45618;SDS011;31343;47.520;19.144;2023-07-22T09:40:33;2.00;;;1.13;;
45618;SDS011;31343;47.520;19.144;2023-07-22T09:43:01;1.50;;;1.10;;
45618;SDS011;31343;47.520;19.144;2023-07-22T09:45:28;1.60;;;1.30;;
45618;SDS011;31343;47.520;19.144;2023-07-22T09:47:56;1.63;;;1.13;;
45618;SDS011;31343;47.520;19.144;2023-07-22T09:50:23;1.80;;;1.10;;
45618;SDS011;31343;47.520;19.144;2023-07-22T09:52:51;2.13;;;1.20;;
45618;SDS011;31343;47.520;19.144;2023-07-22T09:55:19;1.25;;;0.88;;
45618;SDS011;31343;47.520;19.144;2023-07-22T09:57:51;1.13;;;0.77;;
45618;SDS011;31343;47.520;19.144;2023-07-22T10:00:20;1.55;;;1.02;;
45618;SDS011;31343;47.520;19.144;2023-07-22T10:02:48;2.40;;;1.10;;
45618;SDS011;31343;47.520;19.144;2023-07-22T10:05:18;1.33;;;0.95;;
45618;SDS011;31343;47.520;19.144;2023-07-22T10:07:45;10.77;;;0.98;;
45618;SDS011;31343;47.520;19.144;2023-07-22T10:10:14;0.80;;;0.80;;
45618;SDS011;31343;47.520;19.144;2023-07-22T10:12:42;1.52;;;0.90;;
45618;SDS011;31343;47.520;19.144;2023-07-22T10:15:09;1.40;;;0.95;;
45618;SDS011;31343;47.520;19.144;2023-07-22T10:17:37;1.38;;;0.85;;
45618;SDS011;31343;47.520;19.144;2023-07-22T10:20:04;2.28;;;1.27;;
45618;SDS011;31343;47.520;19.144;2023-07-22T10:22:35;1.92;;;1.08;;
45618;SDS011;31343;47.520;19.144;2023-07-22T10:25:05;2.10;;;1.20;;
45618;SDS011;31343;47.520;19.144;2023-07-22T10:27:36;0.93;;;0.80;;
45618;SDS011;31343;47.520;19.144;2023-07-22T10:30:11;2.03;;;0.98;;
45618;SDS011;31343;47.520;19.144;2023-07-22T10:32:38;2.33;;;1.25;;
45618;SDS011;31343;47.520;19.144;2023-07-22T10:35:09;0.90;;;0.88;;
45618;SDS011;31343;47.520;19.144;2023-07-22T10:37:37;1.33;;;0.88;;
45618;SDS011;31343;47.520;19.144;2023-07-22T10:40:19;0.88;;;0.70;;
45618;SDS011;31343;47.520;19.144;2023-07-22T10:43:05;2.25;;;1.00;;
45618;SDS011;31343;47.520;19.144;2023-07-22T10:45:32;2.28;;;1.10;;
45618;SDS011;31343;47.520;19.144;2023-07-22T10:48:08;0.70;;;0.68;;
45618;SDS011;31343;47.520;19.144;2023-07-22T10:50:46;0.82;;;0.63;;
45618;SDS011;31343;47.520;19.144;2023-07-22T10:53:19;1.17;;;0.85;;
45618;SDS011;31343;47.520;19.144;2023-07-22T11:06:36;1.17;;;0.68;;
45618;SDS011;31343;47.520;19.144;2023-07-22T11:09:03;0.98;;;0.60;;
45618;SDS011;31343;47.520;19.144;2023-07-22T11:11:39;0.52;;;0.40;;
45618;SDS011;31343;47.520;19.144;2023-07-22T11:14:15;1.33;;;0.85;;
45618;SDS011;31343;47.520;19.144;2023-07-22T11:16:48;0.75;;;0.70;;
45618;SDS011;31343;47.520;19.144;2023-07-22T11:19:15;0.90;;;0.60;;
45618;SDS011;31343;47.520;19.144;2023-07-22T11:21:42;1.10;;;0.77;;
45618;SDS011;31343;47.520;19.144;2023-07-22T11:24:08;1.58;;;0.85;;
45618;SDS011;31343;47.520;19.144;2023-07-22T11:26:34;0.85;;;0.65;;
45618;SDS011;31343;47.520;19.144;2023-07-22T11:29:01;1.08;;;0.80;;
45618;SDS011;31343;47.520;19.144;2023-07-22T11:31:35;1.38;;;0.50;;
45618;SDS011;31343;47.520;19.144;2023-07-22T11:34:03;0.57;;;0.57;;
45618;SDS011;31343;47.520;19.144;2023-07-22T11:36:30;0.80;;;0.57;;
45618;SDS011;31343;47.520;19.144;2023-07-22T11:39:06;0.85;;;0.60;;
45618;SDS011;31343;47.520;19.144;2023-07-22T11:41:33;1.48;;;0.63;;
45618;SDS011;31343;47.520;19.144;2023-07-22T11:44:00;0.88;;;0.68;;
45618;SDS011;31343;47.520;19.144;2023-07-22T11:46:27;0.98;;;0.50;;
45618;SDS011;31343;47.520;19.144;2023-07-22T11:48:55;0.43;;;0.40;;
45618;SDS011;31343;47.520;19.144;2023-07-22T11:51:22;0.52;;;0.50;;
45618;SDS011;31343;47.520;19.144;2023-07-22T11:53:49;0.88;;;0.50;;
45618;SDS011;31343;47.520;19.144;2023-07-22T11:58:54;1.27;;;0.60;;
45618;SDS011;31343;47.520;19.144;2023-07-22T12:01:21;0.40;;;0.38;;
45618;SDS011;31343;47.520;19.144;2023-07-22T12:03:48;0.88;;;0.60;;
45618;SDS011;31343;47.520;19.144;2023-07-22T12:06:14;1.00;;;0.50;;
45618;SDS011;31343;47.520;19.144;2023-07-22T12:08:44;0.68;;;0.43;;
45618;SDS011;31343;47.520;19.144;2023-07-22T12:11:18;0.40;;;0.40;;
45618;SDS011;31343;47.520;19.144;2023-07-22T12:13:47;0.63;;;0.40;;
45618;SDS011;31343;47.520;19.144;2023-07-22T12:16:34;0.57;;;0.35;;
45618;SDS011;31343;47.520;19.144;2023-07-22T12:19:04;0.80;;;0.47;;
45618;SDS011;31343;47.520;19.144;2023-07-22T12:21:30;0.85;;;0.38;;
45618;SDS011;31343;47.520;19.144;2023-07-22T12:23:56;0.82;;;0.60;;
45618;SDS011;31343;47.520;19.144;2023-07-22T12:26:22;0.45;;;0.40;;
45618;SDS011;31343;47.520;19.144;2023-07-22T12:28:50;0.47;;;0.47;;
45618;SDS011;31343;47.520;19.144;2023-07-22T12:31:15;1.02;;;0.60;;
45618;SDS011;31343;47.520;19.144;2023-07-22T12:33:41;0.68;;;0.35;;
45618;SDS011;31343;47.520;19.144;2023-07-22T12:36:07;0.40;;;0.22;;
45618;SDS011;31343;47.520;19.144;2023-07-22T12:38:33;0.55;;;0.45;;
45618;SDS011;31343;47.520;19.144;2023-07-22T12:40:59;0.68;;;0.47;;
45618;SDS011;31343;47.520;19.144;2023-07-22T12:43:26;0.70;;;0.43;;
45618;SDS011;31343;47.520;19.144;2023-07-22T12:45:53;0.25;;;0.20;;
45618;SDS011;31343;47.520;19.144;2023-07-22T12:48:19;0.85;;;0.40;;
45618;SDS011;31343;47.520;19.144;2023-07-22T12:50:45;0.80;;;0.52;;
45618;SDS011;31343;47.520;19.144;2023-07-22T12:53:12;0.30;;;0.20;;
45618;SDS011;31343;47.520;19.144;2023-07-22T12:55:38;0.73;;;0.52;;
45618;SDS011;31343;47.520;19.144;2023-07-22T12:58:04;1.13;;;0.60;;
45618;SDS011;31343;47.520;19.144;2023-07-22T13:00:30;0.57;;;0.35;;
45618;SDS011;31343;47.520;19.144;2023-07-22T13:02:56;1.15;;;0.52;;
45618;SDS011;31343;47.520;19.144;2023-07-22T13:05:23;0.40;;;0.40;;
45618;SDS011;31343;47.520;19.144;2023-07-22T13:07:50;0.45;;;0.35;;
45618;SDS011;31343;47.520;19.144;2023-07-22T13:10:16;0.95;;;0.60;;
45618;SDS011;31343;47.520;19.144;2023-07-22T13:12:45;1.27;;;0.77;;
45618;SDS011;31343;47.520;19.144;2023-07-22T13:15:11;0.43;;;0.30;;
45618;SDS011;31343;47.520;19.144;2023-07-22T13:17:37;0.77;;;0.55;;
45618;SDS011;31343;47.520;19.144;2023-07-22T13:20:06;0.30;;;0.30;;
45618;SDS011;31343;47.520;19.144;2023-07-22T13:22:32;0.85;;;0.65;;
45618;SDS011;31343;47.520;19.144;2023-07-22T13:24:58;0.38;;;0.38;;
45618;SDS011;31343;47.520;19.144;2023-07-22T13:27:25;0.50;;;0.50;;
45618;SDS011;31343;47.520;19.144;2023-07-22T13:29:51;0.40;;;0.40;;
45618;SDS011;31343;47.520;19.144;2023-07-22T13:32:17;0.40;;;0.40;;
45618;SDS011;31343;47.520;19.144;2023-07-22T13:34:43;0.73;;;0.40;;
45618;SDS011;31343;47.520;19.144;2023-07-22T13:37:09;0.68;;;0.60;;
45618;SDS011;31343;47.520;19.144;2023-07-22T13:39:34;0.55;;;0.50;;
45618;SDS011;31343;47.520;19.144;2023-07-22T13:42:00;0.90;;;0.57;;
45618;SDS011;31343;47.520;19.144;2023-07-22T13:44:26;0.40;;;0.40;;
45618;SDS011;31343;47.520;19.144;2023-07-22T13:46:52;0.98;;;0.40;;
45618;SDS011;31343;47.520;19.144;2023-07-22T13:49:17;0.65;;;0.40;;
45618;SDS011;31343;47.520;19.144;2023-07-22T13:51:45;0.60;;;0.60;;
45618;SDS011;31343;47.520;19.144;2023-07-22T13:54:11;0.90;;;0.60;;
45618;SDS011;31343;47.520;19.144;2023-07-22T13:56:36;1.08;;;0.77;;
45618;SDS011;31343;47.520;19.144;2023-07-22T13:59:02;0.45;;;0.43;;
45618;SDS011;31343;47.520;19.144;2023-07-22T14:01:29;0.98;;;0.70;;
45618;SDS011;31343;47.520;19.144;2023-07-22T14:03:57;1.88;;;0.98;;
45618;SDS011;31343;47.520;19.144;2023-07-22T14:06:23;0.50;;;0.40;;
45618;SDS011;31343;47.520;19.144;2023-07-22T14:08:49;0.93;;;0.60;;
45618;SDS011;31343;47.520;19.144;2023-07-22T14:11:15;1.20;;;0.70;;
45618;SDS011;31343;47.520;19.144;2023-07-22T14:13:41;2.47;;;0.88;;
45618;SDS011;31343;47.520;19.144;2023-07-22T14:16:06;0.50;;;0.50;;
45618;SDS011;31343;47.520;19.144;2023-07-22T14:18:33;1.23;;;0.70;;
45618;SDS011;31343;47.520;19.144;2023-07-22T14:20:59;0.75;;;0.60;;
45618;SDS011;31343;47.520;19.144;2023-07-22T14:23:24;1.33;;;0.60;;
45618;SDS011;31343;47.520;19.144;2023-07-22T14:25:50;0.70;;;0.50;;
45618;SDS011;31343;47.520;19.144;2023-07-22T14:28:16;0.40;;;0.40;;
45618;SDS011;31343;47.520;19.144;2023-07-22T14:30:42;2.25;;;0.68;;
45618;SDS011;31343;47.520;19.144;2023-07-22T14:33:07;0.55;;;0.47;;
45618;SDS011;31343;47.520;19.144;2023-07-22T14:35:33;0.88;;;0.60;;
45618;SDS011;31343;47.520;19.144;2023-07-22T14:38:00;0.90;;;0.68;;
45618;SDS011;31343;47.520;19.144;2023-07-22T14:40:26;0.90;;;0.50;;
45618;SDS011;31343;47.520;19.144;2023-07-22T14:42:51;0.30;;;0.30;;
45618;SDS011;31343;47.520;19.144;2023-07-22T14:45:17;1.00;;;0.55;;
45618;SDS011;31343;47.520;19.144;2023-07-22T14:47:43;0.75;;;0.75;;
45618;SDS011;31343;47.520;19.144;2023-07-22T14:50:11;0.82;;;0.50;;